Time;durP1;ratioP1;P1;durP2;ratioP2;P2;SDS_P1;SDS_P2;PMS_P1;PMS_P2;Temp;Humidity;BMP_temperature;BMP_pressure;BME280_temperature;BME280_humidity;BME280_pressure;Samples;Min_cycle;Max_cycle;Signal;HPM_P1;HPM_P2
2023/05/18 00:00:39;;;;;;;8.50;2.03;;;;;;;8.75;85.58;99350.63;4096960;28;20231;-44
2023/05/18 00:02:41;;;;;;;2.65;2.35;;;;;;;8.65;85.78;99339.31;4095744;28;21157;-44
2023/05/18 00:04:43;;;;;;;3.90;2.33;;;;;;;8.66;86.06;99338.25;4092830;28;20216;-44
2023/05/18 00:06:46;;;;;;;3.33;1.83;;;;;;;8.65;86.49;99342.03;4096989;28;20216;-45
2023/05/18 00:08:47;;;;;;;5.18;2.63;;;;;;;8.63;86.58;99342.25;4100254;28;20220;-45
2023/05/18 00:10:49;;;;;;;3.35;2.08;;;;;;;8.61;86.45;99349.00;4080090;29;20746;-45
2023/05/18 00:12:51;;;;;;;2.75;1.92;;;;;;;8.74;87.39;99338.03;4095755;28;20486;-45
2023/05/18 00:14:53;;;;;;;5.07;3.10;;;;;;;8.61;87.13;99344.38;4094836;28;20259;-45
2023/05/18 00:16:55;;;;;;;3.90;2.85;;;;;;;8.49;86.97;99331.66;4095314;28;20222;-45
2023/05/18 00:18:56;;;;;;;6.05;2.90;;;;;;;8.42;87.22;99333.56;4094046;28;20254;-44
2023/05/18 00:20:58;;;;;;;4.97;3.13;;;;;;;8.38;86.99;99327.72;4079482;29;20231;-45
2023/05/18 00:23:01;;;;;;;3.30;2.63;;;;;;;8.33;87.31;99329.38;4086722;28;20918;-45
2023/05/18 00:25:03;;;;;;;3.83;2.15;;;;;;;8.29;87.10;99322.72;4094917;28;20219;-44
2023/05/18 00:27:05;;;;;;;2.10;1.90;;;;;;;8.24;87.11;99327.97;4097824;28;20749;-45
2023/05/18 00:29:07;;;;;;;3.38;2.33;;;;;;;8.23;87.54;99331.75;4097027;28;20215;-45
2023/05/18 00:31:09;;;;;;;2.88;1.75;;;;;;;8.20;88.17;99329.44;4091642;28;20621;-46
2023/05/18 00:33:11;;;;;;;3.38;2.45;;;;;;;8.15;87.59;99332.78;4097442;28;20685;-45
2023/05/18 00:35:12;;;;;;;4.05;2.70;;;;;;;8.16;88.14;99330.91;4078851;29;20700;-45
2023/05/18 00:37:14;;;;;;;4.38;2.35;;;;;;;8.07;87.64;99330.28;4095549;28;20234;-45
2023/05/18 00:39:16;;;;;;;3.90;1.88;;;;;;;7.78;89.37;99329.94;4097334;28;20217;-45
2023/05/18 00:41:18;;;;;;;7.15;2.45;;;;;;;7.83;89.08;99328.25;4094256;28;20263;-45
2023/05/18 00:43:20;;;;;;;4.32;2.67;;;;;;;7.82;88.52;99325.75;4096480;28;20278;-44
2023/05/18 00:45:22;;;;;;;6.18;2.25;;;;;;;7.89;89.10;99332.03;4098238;28;20207;-46
2023/05/18 00:47:23;;;;;;;3.75;2.50;;;;;;;7.98;88.57;99323.41;4095822;28;20242;-44
2023/05/18 00:49:26;;;;;;;3.25;2.10;;;;;;;7.98;88.18;99326.13;4090917;28;20218;-45
2023/05/18 00:51:28;;;;;;;7.50;2.35;;;;;;;7.93;88.17;99327.81;4096957;28;20278;-45
2023/05/18 00:53:31;;;;;;;6.30;2.38;;;;;;;8.00;88.61;99324.03;4099975;28;20752;-45
2023/05/18 00:55:33;;;;;;;2.30;2.00;;;;;;;7.83;87.92;99319.25;4094399;28;20649;-44
2023/05/18 00:57:35;;;;;;;3.22;2.05;;;;;;;7.83;88.99;99324.69;4093660;28;20215;-44
2023/05/18 00:59:38;;;;;;;4.43;2.65;;;;;;;7.72;88.86;99328.06;4094956;28;20664;-45
2023/05/18 01:01:44;;;;;;;3.97;2.35;;;;;;;7.67;88.82;99327.84;4088489;28;20330;-45
2023/05/18 01:03:46;;;;;;;6.60;2.22;;;;;;;7.64;89.21;99323.69;4098804;28;20569;-45
2023/05/18 01:05:56;;;;;;;2.05;1.85;;;;;;;7.75;89.54;99330.38;4079938;29;20218;-46
2023/05/18 01:07:58;;;;;;;3.83;1.90;;;;;;;7.62;89.43;99322.22;4091350;28;20230;-45
2023/05/18 01:10:00;;;;;;;4.60;2.20;;;;;;;7.58;89.63;99326.41;4097196;28;20575;-45
2023/05/18 01:12:16;;;;;;;2.75;2.10;;;;;;;7.57;89.64;99322.84;4096579;28;20325;-45
2023/05/18 01:14:36;;;;;;;3.75;2.50;;;;;;;7.58;89.39;99321.81;4089407;28;20212;-45
2023/05/18 01:16:43;;;;;;;3.60;2.88;;;;;;;7.56;89.94;99321.16;4096084;28;20266;-45
2023/05/18 01:19:08;;;;;;;4.88;2.38;;;;;;;7.52;89.63;99319.09;4094277;28;20294;-46
2023/05/18 01:21:18;;;;;;;3.70;2.08;;;;;;;7.42;89.75;99313.25;4092837;28;20240;-44
2023/05/18 01:23:23;;;;;;;2.97;2.20;;;;;;;7.52;89.68;99313.63;4089898;28;20206;-46
2023/05/18 01:25:41;;;;;;;4.57;2.30;;;;;;;7.44;89.72;99322.03;4089755;28;20258;-45
2023/05/18 01:27:45;;;;;;;4.40;2.60;;;;;;;7.34;90.08;99310.72;4096161;28;20216;-46
2023/05/18 01:29:47;;;;;;;5.90;3.03;;;;;;;7.30;89.93;99314.91;4098948;28;20241;-45
2023/05/18 01:31:49;;;;;;;6.07;2.70;;;;;;;7.30;90.68;99320.34;4098201;28;20769;-46
2023/05/18 01:33:51;;;;;;;3.20;2.25;;;;;;;7.23;90.85;99314.09;4096143;28;20211;-45
2023/05/18 01:35:53;;;;;;;4.78;1.98;;;;;;;7.18;90.61;99319.31;4088608;28;20639;-45
2023/05/18 01:37:55;;;;;;;2.72;2.03;;;;;;;7.18;91.17;99316.59;4095255;28;20223;-45
2023/05/18 01:39:56;;;;;;;3.28;2.10;;;;;;;7.21;91.04;99321.63;4075505;29;20255;-45
2023/05/18 01:42:04;;;;;;;7.97;2.78;;;;;;;7.13;91.18;99308.19;4093058;28;20238;-44
2023/05/18 01:44:31;;;;;;;2.85;2.53;;;;;;;7.10;91.19;99314.06;4078418;29;20303;-44
2023/05/18 01:46:49;;;;;;;2.85;2.00;;;;;;;7.00;92.01;99314.47;4093229;28;20221;-46
2023/05/18 01:48:55;;;;;;;5.53;1.90;;;;;;;7.04;91.11;99309.47;4097954;28;20694;-45
2023/05/18 01:50:57;;;;;;;6.15;2.25;;;;;;;7.08;91.08;99321.63;4085677;28;20598;-45
2023/05/18 01:53:27;;;;;;;8.15;2.08;;;;;;;7.06;91.31;99307.38;4090308;28;20212;-45
2023/05/18 01:55:29;;;;;;;5.22;2.10;;;;;;;7.05;91.14;99306.53;4088807;28;20279;-45
2023/05/18 01:57:32;;;;;;;6.43;2.78;;;;;;;6.99;91.16;99306.53;4090386;28;20208;-45
2023/05/18 01:59:35;;;;;;;3.38;1.92;;;;;;;6.97;90.22;99309.44;4097297;28;20310;-46
2023/05/18 02:01:40;;;;;;;2.80;2.00;;;;;;;6.94;91.27;99314.47;4090109;28;20298;-45
2023/05/18 02:03:42;;;;;;;4.63;2.17;;;;;;;6.93;91.74;99312.78;4094968;28;20217;-45
2023/05/18 02:05:45;;;;;;;4.15;2.53;;;;;;;6.96;91.65;99312.38;4092405;28;20269;-46
2023/05/18 02:07:46;;;;;;;3.13;1.98;;;;;;;6.89;91.88;99311.53;4098971;28;20696;-45
2023/05/18 02:09:48;;;;;;;3.55;2.25;;;;;;;6.79;91.51;99301.06;4094152;28;20258;-45
2023/05/18 02:11:50;;;;;;;3.58;2.25;;;;;;;6.77;91.94;99308.56;4083043;29;20235;-45
2023/05/18 02:13:52;;;;;;;2.63;2.08;;;;;;;6.75;92.16;99315.28;4082154;29;20294;-44
2023/05/18 02:15:54;;;;;;;14.18;2.50;;;;;;;6.72;92.34;99312.97;4092893;28;20215;-44
2023/05/18 02:17:56;;;;;;;4.20;2.22;;;;;;;6.69;92.05;99311.50;4074942;29;20220;-44
2023/05/18 02:19:59;;;;;;;6.07;2.83;;;;;;;6.64;91.95;99307.72;4098666;28;20290;-45
2023/05/18 02:22:00;;;;;;;3.60;2.40;;;;;;;6.65;92.26;99304.81;4095233;28;20231;-45
2023/05/18 02:24:02;;;;;;;4.95;2.25;;;;;;;6.73;92.97;99307.34;4081779;29;20216;-45
2023/05/18 02:26:04;;;;;;;5.05;2.78;;;;;;;6.64;92.56;99307.72;4098878;28;20211;-44
2023/05/18 02:28:06;;;;;;;3.35;2.55;;;;;;;6.59;93.07;99307.50;4099357;28;21565;-44
2023/05/18 02:30:08;;;;;;;4.65;3.10;;;;;;;6.63;93.13;99300.63;4082214;29;20204;-45
2023/05/18 02:32:10;;;;;;;3.03;2.33;;;;;;;6.60;93.13;99301.00;4089591;28;20274;-45
2023/05/18 02:34:14;;;;;;;2.63;2.35;;;;;;;6.64;92.89;99305.00;4083343;28;20673;-45
2023/05/18 02:36:17;;;;;;;2.55;2.00;;;;;;;6.59;92.88;99307.50;4082546;28;20235;-45
2023/05/18 02:38:20;;;;;;;7.07;1.95;;;;;;;6.52;92.62;99299.34;4087329;28;20207;-46
2023/05/18 02:40:21;;;;;;;5.80;2.20;;;;;;;6.50;92.81;99297.88;4098596;28;20657;-46
2023/05/18 02:42:23;;;;;;;10.82;2.42;;;;;;;6.46;93.33;99302.03;4098588;28;20258;-45
2023/05/18 02:44:25;;;;;;;3.03;2.80;;;;;;;6.45;93.40;99301.19;4090697;28;20223;-45
2023/05/18 02:46:27;;;;;;;3.47;2.20;;;;;;;6.55;93.01;99303.53;4091944;28;20220;-45
2023/05/18 02:48:29;;;;;;;3.00;2.42;;;;;;;6.54;92.78;99299.13;4091653;28;20243;-45
2023/05/18 02:50:31;;;;;;;4.57;3.40;;;;;;;6.54;92.77;99307.25;4098052;28;20226;-44
2023/05/18 02:52:32;;;;;;;3.10;2.08;;;;;;;6.51;92.89;99307.69;4094823;28;20637;-45
2023/05/18 02:54:34;;;;;;;4.03;2.22;;;;;;;6.47;93.35;99306.41;4094406;28;20218;-45
2023/05/18 02:56:37;;;;;;;6.88;2.45;;;;;;;6.45;92.99;99308.50;4106427;28;20657;-45
2023/05/18 02:58:39;;;;;;;2.88;2.13;;;;;;;6.38;93.21;99308.50;4083775;29;20248;-45
2023/05/18 03:00:40;;;;;;;2.63;1.98;;;;;;;6.46;92.93;99312.91;4095478;28;20268;-45
2023/05/18 03:02:43;;;;;;;5.22;2.10;;;;;;;6.46;93.17;99312.91;4099291;28;20242;-45
2023/05/18 03:04:46;;;;;;;14.43;3.83;;;;;;;6.51;93.41;99321.28;4083472;29;20276;-45
2023/05/18 03:06:51;;;;;;;6.75;2.85;;;;;;;6.42;93.14;99309.75;4084503;28;20667;-46
2023/05/18 03:08:53;;;;;;;4.30;3.03;;;;;;;6.38;93.49;99307.66;4089693;28;20724;-45
2023/05/18 03:10:55;;;;;;;5.07;2.40;;;;;;;6.30;93.61;99310.56;4088038;29;20231;-45
2023/05/18 03:12:57;;;;;;;7.22;2.95;;;;;;;6.23;93.35;99309.69;4109333;28;20214;-45
2023/05/18 03:14:59;;;;;;;20.55;2.63;;;;;;;6.33;93.61;99315.56;4098287;28;20214;-44
2023/05/18 03:17:04;;;;;;;3.95;2.85;;;;;;;6.27;93.98;99310.94;4093156;28;20625;-45
2023/05/18 03:19:06;;;;;;;6.20;2.58;;;;;;;6.07;94.88;99308.16;4089963;28;20298;-45
2023/05/18 03:21:08;;;;;;;5.03;2.80;;;;;;;6.08;94.45;99301.69;4078040;29;20303;-45
2023/05/18 03:23:10;;;;;;;4.50;2.38;;;;;;;6.15;94.63;99301.72;4091013;28;20222;-45
2023/05/18 03:25:13;;;;;;;3.85;2.63;;;;;;;6.11;94.43;99300.44;4095744;28;20666;-45
2023/05/18 03:27:17;;;;;;;3.80;2.80;;;;;;;6.11;94.53;99300.44;4095714;28;20717;-45
2023/05/18 03:29:20;;;;;;;11.00;1.80;;;;;;;6.03;94.06;99303.34;4092339;28;20212;-46
2023/05/18 03:31:21;;;;;;;9.43;2.58;;;;;;;6.00;94.57;99299.16;4089873;28;20322;-46
2023/05/18 03:33:23;;;;;;;5.32;2.38;;;;;;;5.97;94.81;99304.97;4092035;28;20247;-46
2023/05/18 03:35:25;;;;;;;4.80;3.03;;;;;;;5.95;94.41;99311.66;4080280;29;20216;-45
2023/05/18 03:37:27;;;;;;;4.07;2.78;;;;;;;5.94;94.45;99318.97;4090878;28;20690;-45
2023/05/18 03:39:29;;;;;;;4.57;3.13;;;;;;;5.92;94.51;99317.47;4097872;28;20214;-45
2023/05/18 03:41:31;;;;;;;6.88;3.08;;;;;;;5.91;94.51;99313.09;4100844;28;20235;-45
2023/05/18 03:43:33;;;;;;;3.67;2.35;;;;;;;5.89;95.05;99320.59;4097805;28;20234;-46
2023/05/18 03:45:35;;;;;;;3.15;2.03;;;;;;;5.96;94.50;99313.34;4097783;28;20324;-45
2023/05/18 03:47:38;;;;;;;6.55;2.60;;;;;;;5.92;94.51;99321.06;4090094;28;20311;-44
2023/05/18 03:49:39;;;;;;;5.82;2.90;;;;;;;5.92;94.76;99322.91;4073433;29;20335;-45
2023/05/18 03:51:41;;;;;;;3.53;1.75;;;;;;;5.93;94.75;99311.00;4091971;28;20656;-45
2023/05/18 03:53:43;;;;;;;4.32;2.50;;;;;;;5.86;94.82;99318.28;4081708;28;20208;-44
2023/05/18 03:55:45;;;;;;;4.93;2.60;;;;;;;5.90;95.05;99316.84;4097506;28;20216;-45
2023/05/18 03:57:47;;;;;;;7.35;2.65;;;;;;;5.82;95.13;99322.44;4098981;28;20542;-45
2023/05/18 03:59:49;;;;;;;4.47;2.50;;;;;;;5.88;95.04;99319.75;4095129;28;20214;-45
2023/05/18 04:01:52;;;;;;;6.47;2.55;;;;;;;5.88;95.32;99322.47;4093146;28;20240;-45
2023/05/18 04:03:55;;;;;;;4.18;2.70;;;;;;;5.85;95.31;99320.19;4094210;28;20222;-45
2023/05/18 04:05:57;;;;;;;5.32;2.55;;;;;;;5.92;94.99;99323.75;4097806;28;20323;-45
2023/05/18 04:07:59;;;;;;;7.32;2.15;;;;;;;5.81;95.44;99326.19;4096825;28;20758;-45
2023/05/18 04:10:00;;;;;;;12.35;2.85;;;;;;;5.80;95.80;99324.50;4098219;28;20222;-45
2023/05/18 04:12:02;;;;;;;4.22;2.17;;;;;;;5.78;95.84;99321.13;4090751;28;20231;-45
2023/05/18 04:14:04;;;;;;;4.20;2.20;;;;;;;5.70;95.43;99324.84;4095943;28;20322;-45
2023/05/18 04:16:06;;;;;;;6.60;2.53;;;;;;;5.72;96.04;99327.34;4096548;28;20801;-45
2023/05/18 04:18:09;;;;;;;4.57;3.58;;;;;;;5.73;96.41;99318.16;4081115;29;20308;-45
2023/05/18 04:20:13;;;;;;;3.60;2.67;;;;;;;5.73;96.20;99323.59;4094580;28;20211;-45
2023/05/18 04:22:15;;;;;;;4.63;2.72;;;;;;;5.82;96.14;99322.44;4110662;28;20238;-45
2023/05/18 04:24:18;;;;;;;5.07;2.75;;;;;;;5.77;96.20;99327.59;4087679;28;20236;-45
2023/05/18 04:26:20;;;;;;;3.75;2.50;;;;;;;5.77;96.42;99325.72;4071678;29;20283;-46
2023/05/18 04:28:22;;;;;;;3.40;2.40;;;;;;;5.75;96.40;99325.09;4105559;28;20215;-45
2023/05/18 04:30:26;;;;;;;4.32;2.67;;;;;;;5.79;96.54;99333.66;4105050;28;20243;-45
2023/05/18 04:32:29;;;;;;;9.05;2.63;;;;;;;5.75;96.90;99333.22;4105704;28;20510;-45
2023/05/18 04:34:34;;;;;;;9.45;3.25;;;;;;;5.85;96.88;99339.19;4077522;28;20857;-45
2023/05/18 04:36:38;;;;;;;3.58;2.47;;;;;;;5.86;96.87;99340.00;4096459;28;20266;-45
2023/05/18 04:38:40;;;;;;;2.58;2.13;;;;;;;5.87;96.53;99342.53;4093131;28;20199;-45
2023/05/18 04:40:42;;;;;;;8.23;3.30;;;;;;;5.98;96.51;99343.84;4078020;29;20209;-45
2023/05/18 04:42:46;;;;;;;5.80;3.05;;;;;;;6.00;96.41;99347.19;4092993;28;20220;-44
2023/05/18 04:44:51;;;;;;;3.97;1.95;;;;;;;6.03;96.85;99342.19;4113024;28;20603;-44
2023/05/18 04:46:55;;;;;;;2.22;1.95;;;;;;;6.05;96.30;99342.84;4100123;28;20211;-44
2023/05/18 04:48:57;;;;;;;4.05;2.38;;;;;;;6.16;96.21;99342.25;4093562;28;20224;-43
2023/05/18 04:50:59;;;;;;;3.65;2.10;;;;;;;6.14;96.33;99343.50;4093998;28;20223;-44
2023/05/18 04:53:02;;;;;;;4.20;2.10;;;;;;;6.16;95.77;99349.59;4094346;28;20207;-45
2023/05/18 04:55:04;;;;;;;5.72;2.35;;;;;;;6.17;96.28;99348.53;4091522;28;20610;-45
2023/05/18 04:57:06;;;;;;;4.25;2.67;;;;;;;6.24;95.99;99349.41;4097692;28;20215;-45
2023/05/18 04:59:09;;;;;;;7.25;2.70;;;;;;;6.30;95.86;99348.59;4095411;28;20215;-45
2023/05/18 05:01:14;;;;;;;3.75;2.03;;;;;;;6.30;96.15;99352.13;4095743;28;20235;-45
2023/05/18 05:03:15;;;;;;;6.43;2.65;;;;;;;6.39;96.18;99352.81;4089095;28;20756;-45
2023/05/18 05:05:18;;;;;;;4.18;1.88;;;;;;;6.49;95.91;99359.53;4093256;28;20285;-46
2023/05/18 05:07:20;;;;;;;5.70;2.92;;;;;;;6.45;95.70;99357.44;4101124;28;20211;-46
2023/05/18 05:09:21;;;;;;;4.07;2.40;;;;;;;6.51;96.07;99356.63;4095347;28;20739;-45
2023/05/18 05:11:23;;;;;;;3.05;2.40;;;;;;;6.55;95.53;99349.75;4093650;28;20230;-45
2023/05/18 05:13:25;;;;;;;5.03;2.35;;;;;;;6.64;95.14;99357.53;4099615;28;20634;-46
2023/05/18 05:15:27;;;;;;;7.38;2.40;;;;;;;6.73;95.24;99355.44;4090551;28;20690;-45
2023/05/18 05:17:29;;;;;;;3.47;2.65;;;;;;;6.52;96.20;99355.59;4091189;28;20207;-45
2023/05/18 05:19:30;;;;;;;4.18;2.67;;;;;;;6.51;97.16;99349.31;4095864;28;20613;-45
2023/05/18 05:21:33;;;;;;;4.00;2.60;;;;;;;6.53;96.00;99354.53;4093653;28;20297;-46
2023/05/18 05:23:34;;;;;;;5.78;2.80;;;;;;;6.58;95.25;99361.06;4098953;28;20528;-45
2023/05/18 05:25:36;;;;;;;10.90;3.58;;;;;;;6.84;94.07;99354.84;4098555;28;20226;-46
2023/05/18 05:27:38;;;;;;;4.03;2.63;;;;;;;6.99;93.37;99350.06;4097732;28;20231;-45
2023/05/18 05:29:40;;;;;;;5.00;3.15;;;;;;;7.08;94.67;99348.84;4092124;28;20266;-45
2023/05/18 05:31:42;;;;;;;7.00;3.55;;;;;;;7.31;95.36;99350.09;4095856;28;20262;-46
2023/05/18 05:33:44;;;;;;;7.18;3.70;;;;;;;7.50;94.66;99353.88;4080818;29;20212;-45
2023/05/18 05:35:46;;;;;;;7.20;2.42;;;;;;;7.73;93.94;99355.09;4078866;29;20216;-45
2023/05/18 05:37:47;;;;;;;8.85;2.88;;;;;;;7.80;90.14;99349.63;4089612;28;20220;-45
2023/05/18 05:39:49;;;;;;;5.75;2.55;;;;;;;7.96;90.04;99349.19;4090398;28;20888;-45
2023/05/18 05:41:51;;;;;;;5.35;3.53;;;;;;;8.26;91.43;99353.97;4093756;28;20632;-45
2023/05/18 05:43:54;;;;;;;5.88;2.08;;;;;;;8.57;90.91;99355.94;4097756;28;20711;-45
2023/05/18 05:45:55;;;;;;;5.95;3.13;;;;;;;8.91;90.81;99366.47;4099193;28;20211;-44
2023/05/18 05:47:57;;;;;;;3.67;2.45;;;;;;;9.01;90.52;99369.56;4092040;28;20282;-44
2023/05/18 05:49:59;;;;;;;4.43;2.30;;;;;;;9.18;87.64;99367.97;4095858;28;20215;-45
2023/05/18 05:52:01;;;;;;;4.93;2.40;;;;;;;9.22;86.19;99363.75;4094847;28;20238;-46
2023/05/18 05:54:03;;;;;;;4.68;2.08;;;;;;;9.46;86.01;99371.13;4097914;28;20203;-45
2023/05/18 05:56:07;;;;;;;11.27;3.45;;;;;;;9.48;84.79;99374.50;4079222;29;20215;-45
2023/05/18 05:58:09;;;;;;;2.88;2.17;;;;;;;9.64;83.67;99368.47;4092444;28;20214;-45
2023/05/18 06:00:11;;;;;;;4.95;2.58;;;;;;;9.57;83.70;99362.22;4110461;28;20685;-45
2023/05/18 06:02:13;;;;;;;3.08;2.38;;;;;;;9.80;84.28;99362.41;4096514;28;20239;-45
2023/05/18 06:04:15;;;;;;;5.53;2.20;;;;;;;9.91;83.81;99361.69;4099360;28;20211;-44
2023/05/18 06:06:17;;;;;;;8.68;2.85;;;;;;;9.98;82.11;99359.72;4099073;28;20598;-45
2023/05/18 06:08:19;;;;;;;6.00;2.85;;;;;;;10.10;83.41;99369.75;4096452;28;20207;-46
2023/05/18 06:10:21;;;;;;;3.45;1.88;;;;;;;10.23;82.33;99363.28;4098052;28;20210;-45
2023/05/18 06:12:23;;;;;;;5.85;2.08;;;;;;;10.29;81.19;99362.38;4094935;28;20227;-45
2023/05/18 06:14:24;;;;;;;8.52;2.17;;;;;;;10.44;81.96;99369.16;4083499;29;20587;-47
2023/05/18 06:16:26;;;;;;;9.95;2.08;;;;;;;10.37;82.23;99371.13;4092488;28;20415;-45
2023/05/18 06:18:28;;;;;;;4.70;1.95;;;;;;;10.51;82.83;99364.44;4092590;28;20216;-45
2023/05/18 06:20:30;;;;;;;2.15;1.27;;;;;;;10.70;81.12;99363.34;4098921;28;20274;-45
2023/05/18 06:22:31;;;;;;;5.47;2.00;;;;;;;10.42;78.74;99357.56;4082460;29;20227;-45
2023/05/18 06:24:33;;;;;;;8.80;2.58;;;;;;;10.21;80.47;99365.44;4098806;28;20498;-45
2023/05/18 06:26:35;;;;;;;7.40;2.30;;;;;;;10.60;80.42;99362.19;4082243;29;20224;-45
2023/05/18 06:28:37;;;;;;;6.63;1.88;;;;;;;10.80;81.54;99366.38;4096940;28;20235;-46
2023/05/18 06:30:39;;;;;;;6.50;1.92;;;;;;;10.62;77.88;99366.38;4097750;28;20282;-45
2023/05/18 06:32:41;;;;;;;4.28;2.38;;;;;;;10.85;77.59;99370.06;4107484;28;20206;-45
2023/05/18 06:34:44;;;;;;;2.95;1.88;;;;;;;11.21;76.69;99367.25;4097213;28;20215;-45
2023/05/18 06:36:46;;;;;;;2.85;2.15;;;;;;;10.93;74.28;99371.69;4093468;28;20306;-45
2023/05/18 06:38:48;;;;;;;3.17;2.25;;;;;;;10.81;76.23;99378.16;4093196;28;20626;-44
2023/05/18 06:40:50;;;;;;;5.28;1.85;;;;;;;10.54;76.44;99379.56;4079683;29;20696;-44
2023/05/18 06:42:52;;;;;;;8.50;3.08;;;;;;;10.91;75.89;99379.28;4094684;28;20243;-46
2023/05/18 06:44:53;;;;;;;7.05;2.38;;;;;;;11.25;73.80;99371.19;4097323;28;20228;-45
2023/05/18 06:46:55;;;;;;;5.95;2.05;;;;;;;11.09;72.71;99382.81;4084005;28;20216;-45
2023/05/18 06:48:57;;;;;;;3.30;2.35;;;;;;;11.13;72.27;99375.81;4097392;28;20207;-44
2023/05/18 06:50:59;;;;;;;2.63;1.42;;;;;;;10.99;71.10;99381.69;4092768;28;20258;-44
2023/05/18 06:53:01;;;;;;;9.02;2.30;;;;;;;11.30;72.01;99379.56;4087311;28;20199;-44
2023/05/18 06:55:04;;;;;;;4.47;2.20;;;;;;;11.45;70.47;99379.13;4076268;29;20214;-45
2023/05/18 06:57:05;;;;;;;5.43;2.10;;;;;;;11.50;71.04;99385.56;4094325;28;20215;-44
2023/05/18 06:59:07;;;;;;;9.73;2.25;;;;;;;11.44;72.64;99381.03;4093655;28;20759;-45
2023/05/18 07:01:09;;;;;;;8.68;3.17;;;;;;;11.38;69.28;99381.94;4105734;28;20274;-45
2023/05/18 07:03:15;;;;;;;7.20;2.20;;;;;;;11.33;69.17;99379.09;4100832;28;20306;-45
2023/05/18 07:05:17;;;;;;;4.30;1.92;;;;;;;11.58;69.51;99374.28;4108704;28;20203;-45
2023/05/18 07:07:19;;;;;;;5.35;1.90;;;;;;;11.57;69.81;99375.34;4095972;28;20203;-44
2023/05/18 07:09:22;;;;;;;5.50;2.42;;;;;;;11.75;70.02;99380.78;4081810;29;20276;-44
2023/05/18 07:11:23;;;;;;;8.35;2.25;;;;;;;11.89;68.09;99373.97;4096483;28;20231;-45
2023/05/18 07:13:28;;;;;;;4.90;1.70;;;;;;;11.72;67.61;99378.47;4098751;28;20214;-45
2023/05/18 07:15:30;;;;;;;4.65;2.60;;;;;;;11.70;67.53;99386.13;4098203;28;20216;-44
2023/05/18 07:17:33;;;;;;;12.98;2.13;;;;;;;11.69;68.12;99376.22;4096014;28;20221;-44
2023/05/18 07:19:35;;;;;;;4.93;2.00;;;;;;;12.05;67.61;99372.44;4080107;29;20223;-44
2023/05/18 07:21:36;;;;;;;6.82;2.13;;;;;;;11.75;67.74;99378.03;4098994;28;20965;-45
2023/05/18 07:23:38;;;;;;;5.60;2.00;;;;;;;11.82;67.14;99367.78;4097224;28;20235;-44
2023/05/18 07:25:40;;;;;;;6.90;1.70;;;;;;;11.99;66.46;99374.25;4090583;28;20224;-45
2023/05/18 07:27:42;;;;;;;6.05;2.03;;;;;;;12.29;67.72;99372.19;4097578;28;20624;-45
2023/05/18 07:29:44;;;;;;;8.18;2.30;;;;;;;12.16;69.02;99366.94;4114104;28;20215;-44
2023/05/18 07:31:46;;;;;;;4.03;2.20;;;;;;;12.37;66.11;99369.06;4103719;28;20235;-45
2023/05/18 07:33:48;;;;;;;3.53;1.95;;;;;;;12.49;65.24;99364.41;4112178;28;20321;-44
2023/05/18 07:35:50;;;;;;;8.07;2.97;;;;;;;12.97;65.17;99375.06;4091208;28;20219;-45
2023/05/18 07:37:52;;;;;;;6.28;2.10;;;;;;;12.48;63.81;99361.88;4090405;28;20276;-45
2023/05/18 07:39:54;;;;;;;6.35;2.33;;;;;;;12.49;66.43;99358.91;4089787;28;20222;-45
2023/05/18 07:41:58;;;;;;;4.95;2.13;;;;;;;13.01;67.71;99371.56;4093150;28;20228;-44
2023/05/18 07:43:59;;;;;;;13.27;3.40;;;;;;;13.13;63.73;99366.03;4092589;28;20231;-44
2023/05/18 07:46:01;;;;;;;5.38;2.03;;;;;;;13.58;66.77;99369.63;4079692;29;20219;-45
2023/05/18 07:48:06;;;;;;;2.72;1.83;;;;;;;13.60;63.09;99368.28;4098191;28;20216;-45
2023/05/18 07:50:08;;;;;;;5.35;1.73;;;;;;;13.98;61.57;99360.09;4095660;28;20243;-45
2023/05/18 07:52:10;;;;;;;6.63;1.90;;;;;;;13.60;60.90;99362.78;4111562;28;20241;-44
2023/05/18 07:54:12;;;;;;;8.55;2.33;;;;;;;13.57;62.86;99362.47;4097671;28;20285;-45
2023/05/18 07:56:14;;;;;;;4.63;2.30;;;;;;;13.34;61.86;99360.66;4091179;28;20215;-44
2023/05/18 07:58:16;;;;;;;2.85;1.75;;;;;;;13.50;63.37;99362.59;4093478;28;20216;-44
2023/05/18 08:00:19;;;;;;;6.28;2.17;;;;;;;13.42;62.51;99360.25;4097171;28;20216;-45
2023/05/18 08:02:21;;;;;;;6.45;2.08;;;;;;;13.70;62.82;99357.44;4087127;28;20721;-45
2023/05/18 08:04:23;;;;;;;3.90;1.77;;;;;;;13.85;63.42;99359.63;4089158;28;20289;-45
2023/05/18 08:06:25;;;;;;;6.18;2.15;;;;;;;14.00;63.61;99352.47;4090609;28;20246;-45
2023/05/18 08:08:27;;;;;;;5.13;2.22;;;;;;;14.37;61.40;99353.56;4099315;28;20207;-46
2023/05/18 08:10:29;;;;;;;6.95;2.17;;;;;;;14.14;61.60;99358.44;4109807;28;20222;-44
2023/05/18 08:12:31;;;;;;;3.95;1.90;;;;;;;14.39;61.29;99351.44;4095513;28;20204;-45
2023/05/18 08:14:32;;;;;;;3.88;1.95;;;;;;;14.32;61.44;99344.41;4094260;28;20636;-44
2023/05/18 08:16:36;;;;;;;5.78;2.35;;;;;;;14.10;60.72;99357.28;4080164;29;20242;-45
2023/05/18 08:18:38;;;;;;;6.80;2.72;;;;;;;14.37;60.71;99352.75;4080760;29;20219;-44
2023/05/18 08:20:40;;;;;;;6.43;1.90;;;;;;;14.22;59.11;99358.88;4107214;28;20213;-45
2023/05/18 08:22:42;;;;;;;3.53;1.70;;;;;;;14.53;59.92;99352.72;4093433;28;20242;-44
2023/05/18 08:24:44;;;;;;;3.35;1.88;;;;;;;14.39;59.42;99351.44;4097327;28;20714;-45
2023/05/18 08:26:46;;;;;;;6.78;2.13;;;;;;;14.43;58.99;99352.56;4096198;28;20298;-44
2023/05/18 08:28:47;;;;;;;2.47;1.40;;;;;;;14.98;58.02;99345.03;4098748;28;20214;-45
2023/05/18 08:30:49;;;;;;;4.88;1.77;;;;;;;14.72;57.26;99337.53;4095935;28;20211;-45
2023/05/18 08:32:51;;;;;;;4.95;1.77;;;;;;;15.15;57.09;99345.75;4078927;29;20219;-45
2023/05/18 08:34:54;;;;;;;2.42;1.75;;;;;;;15.59;58.44;99341.00;4092208;28;20558;-45
2023/05/18 08:36:56;;;;;;;4.60;1.48;;;;;;;15.52;57.11;99338.47;4095262;28;20219;-44
2023/05/18 08:38:59;;;;;;;5.60;1.90;;;;;;;14.55;58.39;99336.75;4079229;29;20216;-44
2023/05/18 08:41:02;;;;;;;5.63;2.15;;;;;;;15.06;59.61;99341.81;4091639;28;20313;-44
2023/05/18 08:43:12;;;;;;;4.22;2.55;;;;;;;14.83;57.42;99335.75;4095930;28;20605;-44
2023/05/18 08:45:22;;;;;;;6.03;2.72;;;;;;;15.10;57.46;99326.41;4078323;29;20208;-44
2023/05/18 08:47:25;;;;;;;4.15;1.90;;;;;;;15.31;54.44;99328.25;4091511;28;20211;-44
2023/05/18 08:49:28;;;;;;;4.28;1.33;;;;;;;15.45;52.73;99328.72;4089425;28;20282;-45
2023/05/18 08:51:34;;;;;;;7.18;1.90;;;;;;;14.67;52.90;99333.88;4089402;28;20231;-44
2023/05/18 08:53:39;;;;;;;4.30;1.95;;;;;;;14.86;54.23;99330.56;4089867;28;20230;-44
2023/05/18 08:55:41;;;;;;;5.28;1.90;;;;;;;14.80;55.08;99326.06;4109748;28;20242;-44
2023/05/18 08:57:52;;;;;;;5.53;2.30;;;;;;;14.75;53.80;99328.75;4093322;28;20211;-44
2023/05/18 08:59:55;;;;;;;5.43;1.95;;;;;;;15.31;54.05;99335.72;4085810;28;20212;-45
2023/05/18 09:01:57;;;;;;;6.47;1.92;;;;;;;15.74;52.74;99330.91;4091564;28;20913;-44
2023/05/18 09:04:00;;;;;;;4.75;2.40;;;;;;;15.22;49.39;99324.31;4091093;28;20701;-44
2023/05/18 09:06:02;;;;;;;13.85;2.17;;;;;;;15.45;52.26;99331.47;4093803;28;20641;-43
2023/05/18 09:08:05;;;;;;;7.88;2.60;;;;;;;15.49;50.42;99319.66;4090971;28;20215;-44
2023/05/18 09:10:11;;;;;;;4.72;1.63;;;;;;;15.93;50.21;99321.16;4089359;28;20223;-43
2023/05/18 09:12:14;;;;;;;13.15;2.33;;;;;;;15.77;50.34;99332.34;4089774;28;20231;-44
2023/05/18 09:14:15;;;;;;;5.93;1.90;;;;;;;15.73;52.13;99314.63;4085462;28;20215;-44
2023/05/18 09:16:18;;;;;;;3.33;1.60;;;;;;;15.84;52.16;99332.94;4089463;28;20290;-44
2023/05/18 09:18:20;;;;;;;6.70;2.25;;;;;;;15.98;53.20;99323.94;4088134;28;20983;-44
2023/05/18 09:20:26;;;;;;;5.47;1.90;;;;;;;16.37;50.89;99316.19;4091312;28;20215;-44
2023/05/18 09:22:28;;;;;;;6.05;2.53;;;;;;;16.08;51.45;99326.75;4086428;28;20243;-44
2023/05/18 09:24:30;;;;;;;4.68;1.83;;;;;;;15.70;50.82;99332.53;4104883;28;20246;-44
2023/05/18 09:26:32;;;;;;;7.00;2.35;;;;;;;15.45;51.81;99317.69;4089720;28;20986;-44
2023/05/18 09:28:40;;;;;;;7.70;1.90;;;;;;;15.93;51.04;99318.38;4096720;28;21142;-44
2023/05/18 09:30:42;;;;;;;5.20;1.90;;;;;;;15.76;52.28;99319.63;4091964;28;20301;-44
2023/05/18 09:32:47;;;;;;;8.15;1.80;;;;;;;15.61;50.56;99323.09;4084227;29;20207;-44
2023/05/18 09:34:49;;;;;;;7.65;1.70;;;;;;;16.08;51.22;99324.00;4095442;28;20620;-45
2023/05/18 09:36:56;;;;;;;5.20;2.20;;;;;;;16.77;53.18;99328.28;4099867;28;20215;-44
2023/05/18 09:38:58;;;;;;;5.57;1.73;;;;;;;16.90;52.02;99318.69;4109656;28;20211;-44
2023/05/18 09:41:00;;;;;;;7.00;2.08;;;;;;;16.74;50.64;99328.84;4093608;28;20231;-44
2023/05/18 09:43:06;;;;;;;4.40;2.10;;;;;;;16.84;50.51;99320.56;4096282;28;20219;-43